Leeds, Massachusetts
Current Conditions -  °F | °C
As of 10:53 AM on Saturday 25 Oct 2014 (Local Time) from KBAF Reporting Station
Clear Clear  
Wind Chill: 59°   Ceiling: Unl
Heat Index: 59°   Visibility: 10mi
Dew Point: 38°   Wind: 10mph
Humidity: 46%   Direction: 290°WNW
Pressure: 29.77"   Gusts: 18mph
Location:  42.35°N, 72.7°W
Report Text: KBAF 251453Z 29009G16KT 10SM CLR 15/03 A2977 RMK AO2 SLP080 T01500033 58015
Loading
Personal Weather Stations






























Interactive Weather Map
Tropical Storm Tracking
New forecast layout! Learn more

10-Day Weather Forecast

Advertisements
Track Severe Weather on mobile